Time;durP1;ratioP1;P1;durP2;ratioP2;P2;SDS_P1;SDS_P2;PMS_P1;PMS_P2;Temp;Humidity;BMP_temperature;BMP_pressure;BME280_temperature;BME280_humidity;BME280_pressure;Samples;Min_cycle;Max_cycle;Signal;HPM_P1;HPM_P2
2022/08/18 00:02:14;;;;;;;0.00;0.00;;;18.70;99.90;;;;;;5038604;28;20099;-69
2022/08/18 00:04:41;;;;;;;0.10;0.10;;;18.70;99.90;;;;;;5042210;28;20051;-69
2022/08/18 00:07:28;;;;;;;0.30;0.30;;;18.70;99.90;;;;;;5039829;28;20037;-69
2022/08/18 00:09:54;;;;;;;0.08;0.08;;;18.80;99.90;;;;;;5049404;28;20060;-69
2022/08/18 00:12:31;;;;;;;0.20;0.20;;;18.80;99.90;;;;;;5045642;28;20050;-69
2022/08/18 00:15:02;;;;;;;0.38;0.38;;;18.80;99.90;;;;;;5042985;28;20049;-69
2022/08/18 00:17:27;;;;;;;0.15;0.15;;;18.80;99.90;;;;;;5040187;28;20589;-69
2022/08/18 00:19:53;;;;;;;0.20;0.20;;;18.80;99.90;;;;;;5033483;28;20045;-69
2022/08/18 00:22:20;;;;;;;0.10;0.10;;;18.80;99.90;;;;;;5037818;28;20148;-69
2022/08/18 00:24:52;;;;;;;0.00;0.00;;;18.80;99.90;;;;;;5047873;28;20044;-69
2022/08/18 00:27:26;;;;;;;0.10;0.10;;;18.80;99.90;;;;;;5046069;28;20520;-69
2022/08/18 00:29:53;;;;;;;0.10;0.10;;;18.80;99.90;;;;;;5033118;28;20381;-69
2022/08/18 00:32:26;;;;;;;0.22;0.22;;;18.80;99.90;;;;;;5039023;28;20080;-69
2022/08/18 00:34:52;;;;;;;;;;;18.80;99.90;;;;;;5046733;28;20044;-69
2022/08/18 00:37:19;;;;;;;0.10;0.10;;;18.80;99.90;;;;;;5040250;28;20365;-69
2022/08/18 00:39:44;;;;;;;0.00;0.00;;;18.80;99.90;;;;;;5041566;28;20041;-69
2022/08/18 00:42:16;;;;;;;0.00;0.00;;;18.80;99.90;;;;;;5043034;28;20048;-69
2022/08/18 00:44:42;;;;;;;0.03;0.03;;;18.80;99.90;;;;;;5042649;28;20057;-69
2022/08/18 00:47:07;;;;;;;0.00;0.00;;;18.80;99.90;;;;;;5030462;28;20104;-69
2022/08/18 00:49:34;;;;;;;0.88;0.55;;;18.80;99.90;;;;;;5040990;28;20037;-69
2022/08/18 00:52:00;;;;;;;0.38;0.38;;;18.80;99.90;;;;;;5056500;28;20033;-69
2022/08/18 00:54:32;;;;;;;0.13;0.13;;;18.80;99.90;;;;;;5037385;28;20053;-69
2022/08/18 00:57:02;;;;;;;3.60;0.52;;;18.80;99.90;;;;;;5042814;28;20041;-69
2022/08/18 00:59:45;;;;;;;0.20;0.20;;;18.80;99.90;;;;;;5034543;28;20047;-69
2022/08/18 01:02:17;;;;;;;0.10;0.10;;;18.80;99.90;;;;;;5043872;28;20045;-69
2022/08/18 01:05:00;;;;;;;0.30;0.30;;;18.80;99.90;;;;;;5045294;28;20053;-69
2022/08/18 01:07:41;;;;;;;0.00;0.00;;;18.80;99.90;;;;;;5036218;28;20311;-69
2022/08/18 01:10:07;;;;;;;0.10;0.10;;;18.80;99.90;;;;;;5044564;28;20076;-68
2022/08/18 01:12:32;;;;;;;0.35;0.35;;;18.80;99.90;;;;;;5042156;28;20087;-68
2022/08/18 01:14:59;;;;;;;0.55;0.45;;;18.80;99.90;;;;;;5045565;28;20136;-68
2022/08/18 01:23:12;;;;;;;0.57;0.57;;;18.80;99.90;;;;;;5047792;28;20431;-68
2022/08/18 01:28:24;;;;;;;0.10;0.10;;;18.90;99.90;;;;;;5043463;28;20122;-68
2022/08/18 01:30:54;;;;;;;0.10;0.10;;;18.90;99.90;;;;;;5043411;28;20381;-68
2022/08/18 01:33:20;;;;;;;0.10;0.10;;;18.80;99.90;;;;;;5044297;28;20518;-68
2022/08/18 01:35:48;;;;;;;0.00;0.00;;;18.80;99.90;;;;;;5041814;28;20033;-68
2022/08/18 01:38:17;;;;;;;0.05;0.05;;;18.80;99.90;;;;;;5053974;28;20049;-67
2022/08/18 01:40:43;;;;;;;0.13;0.13;;;18.80;99.90;;;;;;5041053;28;20041;-67
2022/08/18 01:43:10;;;;;;;0.00;0.00;;;18.80;99.90;;;;;;5043422;28;20045;-68
2022/08/18 01:45:36;;;;;;;0.20;0.20;;;18.90;99.90;;;;;;5042336;28;20037;-68
2022/08/18 01:48:03;;;;;;;1.83;0.40;;;18.90;99.90;;;;;;5041904;28;20067;-68
2022/08/18 01:50:30;;;;;;;1.55;0.80;;;18.90;99.90;;;;;;5050234;28;20037;-68
2022/08/18 01:52:56;;;;;;;4.20;0.98;;;18.90;99.90;;;;;;5035501;28;20050;-67
2022/08/18 01:55:21;;;;;;;0.10;0.10;;;18.90;99.90;;;;;;5047822;28;20392;-67
2022/08/18 01:57:47;;;;;;;0.90;0.90;;;18.90;99.90;;;;;;5043155;28;20049;-67
2022/08/18 02:00:16;;;;;;;0.20;0.20;;;18.90;99.90;;;;;;5037143;28;20164;-68
2022/08/18 02:02:42;;;;;;;0.30;0.30;;;18.90;99.90;;;;;;5031115;28;20137;-67
2022/08/18 02:05:17;;;;;;;0.00;0.00;;;18.90;99.90;;;;;;5041379;28;20140;-67
2022/08/18 02:07:43;;;;;;;0.10;0.10;;;18.90;99.90;;;;;;5045259;28;20064;-67
2022/08/18 02:10:12;;;;;;;0.13;0.13;;;18.90;99.90;;;;;;5049380;28;20041;-67
2022/08/18 02:12:39;;;;;;;0.15;0.15;;;18.90;99.90;;;;;;5037549;28;20509;-67
2022/08/18 02:15:06;;;;;;;0.85;0.20;;;18.90;99.90;;;;;;5041513;28;20116;-67
2022/08/18 02:17:37;;;;;;;0.10;0.10;;;18.90;99.90;;;;;;5038103;28;20062;-67
2022/08/18 02:20:03;;;;;;;0.10;0.10;;;19.00;99.90;;;;;;5046641;28;20061;-69
2022/08/18 02:22:29;;;;;;;0.10;0.10;;;19.00;99.90;;;;;;5040279;28;20049;-68
2022/08/18 02:24:56;;;;;;;0.00;0.00;;;19.00;99.90;;;;;;5040832;28;20103;-68
2022/08/18 02:27:22;;;;;;;0.20;0.20;;;19.00;99.90;;;;;;5036795;28;20425;-68
2022/08/18 02:29:47;;;;;;;0.03;0.03;;;19.00;99.90;;;;;;5047449;28;20041;-68
2022/08/18 02:32:13;;;;;;;0.10;0.10;;;19.00;99.90;;;;;;5041420;28;20037;-68
2022/08/18 02:34:40;;;;;;;0.00;0.00;;;18.90;99.90;;;;;;5038719;28;20381;-68
2022/08/18 02:37:05;;;;;;;0.00;0.00;;;18.90;99.90;;;;;;5047713;28;20408;-68
2022/08/18 02:39:34;;;;;;;0.28;0.28;;;18.90;99.90;;;;;;5042221;28;20033;-68
2022/08/18 02:41:59;;;;;;;0.05;0.05;;;18.90;99.90;;;;;;5040611;28;20131;-68
2022/08/18 02:44:25;;;;;;;0.20;0.20;;;18.90;99.90;;;;;;5049030;28;20160;-68
2022/08/18 02:46:53;;;;;;;0.10;0.10;;;18.80;99.90;;;;;;5046692;28;20041;-68
2022/08/18 02:49:18;;;;;;;0.20;0.20;;;18.80;99.90;;;;;;5038921;28;20427;-69
2022/08/18 02:51:45;;;;;;;5.60;2.13;;;18.90;99.90;;;;;;5042732;28;20075;-68
2022/08/18 02:54:10;;;;;;;0.00;0.00;;;18.80;99.90;;;;;;5038241;28;20049;-69
2022/08/18 02:56:36;;;;;;;0.10;0.10;;;18.90;99.90;;;;;;5049117;28;20048;-68
2022/08/18 02:59:11;;;;;;;0.10;0.10;;;18.90;99.90;;;;;;5047294;28;20048;-69
2022/08/18 03:01:39;;;;;;;0.55;0.55;;;18.90;99.90;;;;;;5041199;28;20037;-68
2022/08/18 03:04:07;;;;;;;0.03;0.03;;;18.90;99.90;;;;;;5041987;28;20447;-68
2022/08/18 03:06:35;;;;;;;0.00;0.00;;;18.90;99.90;;;;;;5042599;28;20046;-68
2022/08/18 03:09:02;;;;;;;0.10;0.10;;;18.90;99.90;;;;;;5033009;28;20084;-69
2022/08/18 03:11:28;;;;;;;0.08;0.08;;;18.90;99.90;;;;;;5047796;28;20052;-68
2022/08/18 03:13:55;;;;;;;0.03;0.03;;;18.90;99.90;;;;;;5047839;28;20047;-68
2022/08/18 03:16:23;;;;;;;0.68;0.68;;;18.90;99.90;;;;;;5042653;28;20546;-68
2022/08/18 03:18:50;;;;;;;0.00;0.00;;;18.90;99.90;;;;;;5040695;28;20045;-68
2022/08/18 03:21:20;;;;;;;0.75;0.75;;;18.90;99.90;;;;;;5056830;28;20045;-68
2022/08/18 03:23:46;;;;;;;0.00;0.00;;;18.90;99.90;;;;;;5039361;28;20045;-69
2022/08/18 03:26:13;;;;;;;0.10;0.10;;;18.90;99.90;;;;;;5047638;28;20110;-69
2022/08/18 03:28:45;;;;;;;0.65;0.65;;;18.90;99.90;;;;;;5046369;28;20049;-69
2022/08/18 03:31:16;;;;;;;0.10;0.10;;;18.90;99.90;;;;;;5041835;28;20041;-69
2022/08/18 03:33:42;;;;;;;0.00;0.00;;;18.90;99.90;;;;;;5048444;28;20107;-69
2022/08/18 03:36:13;;;;;;;0.03;0.03;;;18.90;99.90;;;;;;5044604;28;20045;-69
2022/08/18 03:38:41;;;;;;;0.05;0.05;;;18.90;99.90;;;;;;5042279;28;20047;-69
2022/08/18 03:41:08;;;;;;;0.25;0.25;;;18.90;99.90;;;;;;5043216;28;20141;-69
2022/08/18 03:43:34;;;;;;;0.00;0.00;;;18.90;99.90;;;;;;5046682;28;20565;-69
2022/08/18 03:46:06;;;;;;;0.20;0.20;;;18.90;99.90;;;;;;5041110;28;20045;-69
2022/08/18 03:48:35;;;;;;;0.38;0.38;;;18.90;99.90;;;;;;5029498;28;20057;-69
2022/08/18 03:51:28;;;;;;;0.68;0.68;;;18.90;99.90;;;;;;5044161;28;20045;-70
2022/08/18 03:53:58;;;;;;;0.38;0.38;;;18.90;99.90;;;;;;5037102;28;20049;-70
2022/08/18 03:56:27;;;;;;;2.22;0.60;;;18.90;99.90;;;;;;5047200;28;20064;-69
2022/08/18 03:58:58;;;;;;;0.50;0.50;;;18.90;99.90;;;;;;5035050;28;20092;-69
2022/08/18 04:01:27;;;;;;;0.08;0.08;;;19.00;99.90;;;;;;5035871;28;20045;-69
2022/08/18 04:03:55;;;;;;;0.10;0.10;;;19.00;99.90;;;;;;5042619;28;20061;-70
2022/08/18 04:06:28;;;;;;;1.98;0.80;;;18.90;99.90;;;;;;5034896;28;20040;-69
2022/08/18 04:08:56;;;;;;;0.77;0.65;;;19.00;99.90;;;;;;5045438;28;20044;-69
2022/08/18 04:11:23;;;;;;;1.05;0.85;;;19.00;99.90;;;;;;5043371;28;20067;-69
2022/08/18 04:13:49;;;;;;;0.13;0.13;;;19.00;99.90;;;;;;5029141;28;20453;-68
2022/08/18 04:16:16;;;;;;;1.00;0.20;;;19.00;99.90;;;;;;5041366;28;20037;-68
2022/08/18 04:18:41;;;;;;;0.00;0.00;;;18.90;99.90;;;;;;5045910;28;20646;-68
2022/08/18 04:21:12;;;;;;;0.20;0.20;;;18.90;99.90;;;;;;5045123;28;20045;-68
2022/08/18 04:23:38;;;;;;;1.08;1.08;;;19.00;99.90;;;;;;5044504;28;20044;-68
2022/08/18 04:26:06;;;;;;;0.55;0.38;;;18.90;99.90;;;;;;5034297;28;20432;-69
2022/08/18 04:28:32;;;;;;;0.15;0.15;;;18.90;99.90;;;;;;5036560;28;20048;-68
2022/08/18 04:30:58;;;;;;;0.10;0.10;;;18.90;99.90;;;;;;5040436;28;20499;-68
2022/08/18 04:33:28;;;;;;;0.10;0.10;;;18.90;99.90;;;;;;5031635;28;20040;-69
2022/08/18 04:35:54;;;;;;;0.20;0.20;;;18.90;99.90;;;;;;5046819;28;20626;-69
2022/08/18 04:38:21;;;;;;;0.45;0.45;;;18.90;99.90;;;;;;5043999;28;20037;-69
2022/08/18 04:40:46;;;;;;;0.20;0.20;;;18.90;99.90;;;;;;5037889;28;20473;-69
2022/08/18 04:43:14;;;;;;;0.43;0.32;;;18.80;99.90;;;;;;5036109;28;20053;-69
2022/08/18 04:45:46;;;;;;;0.00;0.00;;;18.90;99.90;;;;;;5037661;28;20048;-69
2022/08/18 04:48:14;;;;;;;0.10;0.10;;;18.90;99.90;;;;;;5046536;28;20048;-70
2022/08/18 04:50:41;;;;;;;0.10;0.10;;;18.90;99.90;;;;;;5031059;28;20057;-70
2022/08/18 04:55:53;;;;;;;0.20;0.20;;;18.90;99.90;;;;;;5040062;28;20206;-69
2022/08/18 04:58:22;;;;;;;0.00;0.00;;;18.90;99.90;;;;;;5034168;28;20044;-69
2022/08/18 05:01:00;;;;;;;0.10;0.10;;;18.90;99.90;;;;;;5045709;28;20038;-69
2022/08/18 05:03:26;;;;;;;0.10;0.10;;;18.90;99.90;;;;;;5035341;28;20053;-70
2022/08/18 05:05:57;;;;;;;0.00;0.00;;;18.90;99.90;;;;;;5044037;28;20056;-69
2022/08/18 05:08:23;;;;;;;0.10;0.10;;;18.90;99.90;;;;;;5030958;28;20073;-69
2022/08/18 05:10:59;;;;;;;0.65;0.65;;;18.90;99.90;;;;;;5037238;28;20045;-70
2022/08/18 05:13:25;;;;;;;0.00;0.00;;;18.90;99.90;;;;;;5045960;28;20049;-70
2022/08/18 05:15:55;;;;;;;0.30;0.30;;;19.00;99.90;;;;;;5045607;28;20053;-70
2022/08/18 05:18:23;;;;;;;0.00;0.00;;;19.00;99.90;;;;;;5042756;28;20040;-70
2022/08/18 05:20:50;;;;;;;0.65;0.25;;;19.00;99.90;;;;;;5043705;28;20052;-69
2022/08/18 05:23:16;;;;;;;0.00;0.00;;;19.00;99.90;;;;;;5040277;28;20124;-70
2022/08/18 05:25:41;;;;;;;0.00;0.00;;;19.00;99.90;;;;;;5036561;28;21872;-70
2022/08/18 05:28:08;;;;;;;0.00;0.00;;;19.00;99.90;;;;;;5051171;28;20090;-70
2022/08/18 05:30:35;;;;;;;0.45;0.43;;;19.00;99.90;;;;;;5046254;28;20041;-70
2022/08/18 05:33:02;;;;;;;0.20;0.20;;;19.00;99.90;;;;;;5037028;28;20099;-70
2022/08/18 05:35:41;;;;;;;0.00;0.00;;;19.00;99.90;;;;;;5038656;28;20052;-70
2022/08/18 05:38:24;;;;;;;0.00;0.00;;;19.00;99.90;;;;;;5043510;28;20432;-69
2022/08/18 05:41:05;;;;;;;;;;;19.00;99.90;;;;;;5047375;28;20049;-69
2022/08/18 05:43:31;;;;;;;0.00;0.00;;;19.00;99.90;;;;;;5033034;28;19924;-68
2022/08/18 05:46:00;;;;;;;0.00;0.00;;;19.00;99.90;;;;;;5047115;28;20041;-69
2022/08/18 05:48:26;;;;;;;0.00;0.00;;;19.00;99.90;;;;;;5036256;28;20493;-69
2022/08/18 05:50:53;;;;;;;0.00;0.00;;;19.00;99.90;;;;;;5044444;28;20060;-69
2022/08/18 05:56:45;;;;;;;0.00;0.00;;;19.00;99.90;;;;;;5037165;28;20047;-69
2022/08/18 05:58:54;;;;;;;0.13;0.13;;;19.00;99.90;;;;;;5033765;28;20528;-69
2022/08/18 06:01:27;;;;;;;0.10;0.10;;;19.00;99.90;;;;;;5034468;28;20049;-68
2022/08/18 06:03:59;;;;;;;0.10;0.10;;;19.00;99.90;;;;;;5045322;28;20060;-68
2022/08/18 06:06:28;;;;;;;0.10;0.10;;;19.00;99.90;;;;;;5043611;28;20063;-68
2022/08/18 06:09:22;;;;;;;0.10;0.10;;;19.00;99.90;;;;;;5047265;28;20476;-68
2022/08/18 06:11:48;;;;;;;;;;;18.90;99.90;;;;;;5038650;28;20047;-68
2022/08/18 06:14:14;;;;;;;0.30;0.30;;;19.00;99.90;;;;;;5036114;28;19921;-68
2022/08/18 06:16:55;;;;;;;0.00;0.00;;;19.00;99.90;;;;;;5048045;28;20056;-68
2022/08/18 06:19:58;;;;;;;0.00;0.00;;;19.00;99.90;;;;;;5049050;28;20726;-68
2022/08/18 06:22:35;;;;;;;0.00;0.00;;;19.00;99.90;;;;;;5042718;28;20037;-71
2022/08/18 06:25:15;;;;;;;0.00;0.00;;;19.00;99.90;;;;;;5046506;28;20060;-69
2022/08/18 06:27:54;;;;;;;0.10;0.10;;;19.00;99.90;;;;;;5045534;28;20586;-69
2022/08/18 06:30:41;;;;;;;0.00;0.00;;;19.10;99.90;;;;;;5040500;28;20052;-69
2022/08/18 06:33:35;;;;;;;0.10;0.10;;;19.10;99.90;;;;;;5038082;28;20048;-69
2022/08/18 06:36:34;;;;;;;0.13;0.13;;;19.20;99.90;;;;;;5048489;28;20033;-69
2022/08/18 06:39:26;;;;;;;0.00;0.00;;;19.30;99.90;;;;;;5041896;28;20106;-70
2022/08/18 06:41:53;;;;;;;0.00;0.00;;;19.40;99.90;;;;;;5044116;28;20054;-70
2022/08/18 06:44:32;;;;;;;0.10;0.10;;;19.40;99.90;;;;;;5042625;28;20526;-70
2022/08/18 06:47:03;;;;;;;0.10;0.10;;;19.40;99.90;;;;;;5053806;28;20041;-70
2022/08/18 06:49:50;;;;;;;0.10;0.10;;;19.40;99.90;;;;;;5048325;28;20099;-70
2022/08/18 06:52:26;;;;;;;0.00;0.00;;;19.50;99.90;;;;;;5036180;28;20476;-71
2022/08/18 06:54:54;;;;;;;0.00;0.00;;;19.50;99.90;;;;;;5042851;28;20044;-70
2022/08/18 06:57:27;;;;;;;0.00;0.00;;;19.50;99.90;;;;;;5041189;28;20168;-70
2022/08/18 07:00:06;;;;;;;0.65;0.65;;;19.50;99.90;;;;;;5032745;28;20595;-70
2022/08/18 07:02:46;;;;;;;0.03;0.03;;;19.60;99.90;;;;;;5048619;28;20536;-70
2022/08/18 07:05:29;;;;;;;0.00;0.00;;;19.50;99.90;;;;;;5038614;28;20056;-69
2022/08/18 07:08:14;;;;;;;0.00;0.00;;;19.50;99.90;;;;;;5043567;28;20041;-70
2022/08/18 07:10:49;;;;;;;0.10;0.10;;;19.60;99.90;;;;;;5038604;28;20056;-70
2022/08/18 07:13:26;;;;;;;0.00;0.00;;;19.60;99.90;;;;;;5036846;28;20730;-70
2022/08/18 07:15:55;;;;;;;0.00;0.00;;;19.60;99.90;;;;;;5045850;28;20416;-69
2022/08/18 07:18:26;;;;;;;0.00;0.00;;;19.70;99.90;;;;;;5044606;28;20048;-70
2022/08/18 07:20:59;;;;;;;0.00;0.00;;;19.70;99.90;;;;;;5044726;28;20091;-70
2022/08/18 07:23:38;;;;;;;0.00;0.00;;;19.70;99.90;;;;;;5048169;28;20103;-70
2022/08/18 07:26:11;;;;;;;0.43;0.30;;;19.70;99.90;;;;;;5038125;28;20106;-70
2022/08/18 07:28:44;;;;;;;0.10;0.10;;;19.70;99.90;;;;;;5038530;28;20040;-70
2022/08/18 07:31:13;;;;;;;;;;;19.70;99.90;;;;;;5049810;28;20064;-69
2022/08/18 07:33:41;;;;;;;0.85;0.57;;;19.60;99.90;;;;;;5034079;28;19931;-70
2022/08/18 07:36:09;;;;;;;0.10;0.10;;;19.60;99.90;;;;;;5046193;28;20128;-70
2022/08/18 07:38:53;;;;;;;0.00;0.00;;;19.70;99.90;;;;;;5040885;28;20045;-69
2022/08/18 07:41:25;;;;;;;0.00;0.00;;;19.70;99.90;;;;;;5039801;28;20047;-70
2022/08/18 07:44:17;;;;;;;0.00;0.00;;;19.70;99.90;;;;;;5028679;28;20050;-70
2022/08/18 07:47:03;;;;;;;0.22;0.22;;;19.80;99.90;;;;;;5039288;28;20059;-71
2022/08/18 07:49:33;;;;;;;0.03;0.03;;;19.90;99.90;;;;;;5036579;28;20496;-71
2022/08/18 07:52:20;;;;;;;0.00;0.00;;;20.00;99.90;;;;;;5043609;28;20053;-70
2022/08/18 07:55:02;;;;;;;0.00;0.00;;;20.00;99.90;;;;;;5037288;28;20037;-70
2022/08/18 07:57:51;;;;;;;0.45;0.20;;;20.00;99.90;;;;;;5033359;28;20091;-71
2022/08/18 08:00:32;;;;;;;0.10;0.10;;;20.00;99.90;;;;;;5044647;28;20053;-71
2022/08/18 08:03:37;;;;;;;0.05;0.05;;;19.90;99.90;;;;;;5040717;28;20136;-71
2022/08/18 08:06:32;;;;;;;0.03;0.03;;;19.90;99.90;;;;;;5037731;28;20053;-70
2022/08/18 08:09:05;;;;;;;0.00;0.00;;;20.10;99.90;;;;;;5024527;28;20143;-71
2022/08/18 08:11:51;;;;;;;0.00;0.00;;;20.30;99.90;;;;;;5043423;28;20033;-70
2022/08/18 08:14:39;;;;;;;0.15;0.15;;;20.30;99.90;;;;;;5043575;28;20396;-70
2022/08/18 08:17:24;;;;;;;0.20;0.20;;;20.30;99.90;;;;;;5040974;28;20118;-70
2022/08/18 08:20:07;;;;;;;0.00;0.00;;;20.20;99.90;;;;;;5034794;28;20041;-70
2022/08/18 08:23:16;;;;;;;0.00;0.00;;;20.30;99.90;;;;;;5035039;28;20037;-70
2022/08/18 08:26:08;;;;;;;0.00;0.00;;;20.20;99.90;;;;;;5036003;28;20049;-70
2022/08/18 08:28:55;;;;;;;0.00;0.00;;;20.20;99.90;;;;;;5035126;28;20080;-70
2022/08/18 08:31:28;;;;;;;0.05;0.05;;;20.20;99.90;;;;;;5045073;28;20789;-70
2022/08/18 08:34:08;;;;;;;0.15;0.15;;;20.20;99.90;;;;;;5040497;28;20100;-70
2022/08/18 08:36:39;;;;;;;0.10;0.10;;;20.30;99.90;;;;;;5043635;28;20037;-71
2022/08/18 08:39:11;;;;;;;0.00;0.00;;;20.40;99.90;;;;;;5047386;28;20493;-70
2022/08/18 08:41:49;;;;;;;0.00;0.00;;;20.40;99.90;;;;;;5043357;28;20033;-71
2022/08/18 08:44:30;;;;;;;0.00;0.00;;;20.50;99.90;;;;;;5045651;28;20139;-71
2022/08/18 08:47:16;;;;;;;0.15;0.15;;;20.60;99.90;;;;;;5037515;28;20494;-70
2022/08/18 08:49:49;;;;;;;0.00;0.00;;;20.60;99.90;;;;;;5057575;28;20052;-71
2022/08/18 08:52:23;;;;;;;0.00;0.00;;;20.70;99.90;;;;;;5046155;28;20060;-71
2022/08/18 08:55:11;;;;;;;0.00;0.00;;;20.80;99.90;;;;;;5028549;28;20076;-71
2022/08/18 08:57:51;;;;;;;0.00;0.00;;;20.70;99.90;;;;;;5029749;28;20052;-71
2022/08/18 09:00:17;;;;;;;0.00;0.00;;;20.70;99.90;;;;;;5058978;28;20092;-71
2022/08/18 09:02:51;;;;;;;0.00;0.00;;;20.50;99.90;;;;;;5046710;28;20144;-71
2022/08/18 09:05:28;;;;;;;0.00;0.00;;;20.50;99.90;;;;;;5035649;28;20116;-71
2022/08/18 09:08:38;;;;;;;0.00;0.00;;;20.40;99.90;;;;;;5034116;28;20041;-71
2022/08/18 09:11:43;;;;;;;0.65;0.65;;;20.50;99.90;;;;;;5047507;28;20048;-71
2022/08/18 09:14:24;;;;;;;0.00;0.00;;;20.60;99.90;;;;;;5031886;28;20443;-71
2022/08/18 09:17:20;;;;;;;0.43;0.43;;;20.60;99.90;;;;;;5037104;28;20053;-71
2022/08/18 09:20:26;;;;;;;0.00;0.00;;;20.60;99.90;;;;;;5044383;28;20064;-71
2022/08/18 09:22:57;;;;;;;0.00;0.00;;;20.60;99.90;;;;;;5045577;28;20052;-70
2022/08/18 09:25:46;;;;;;;0.00;0.00;;;20.70;99.90;;;;;;5033322;28;20060;-71
2022/08/18 09:28:28;;;;;;;0.70;0.52;;;20.70;99.90;;;;;;5043639;28;20110;-71
2022/08/18 09:31:04;;;;;;;0.73;0.73;;;20.80;99.90;;;;;;5032483;28;20068;-70
2022/08/18 09:33:44;;;;;;;0.00;0.00;;;21.20;99.90;;;;;;5037428;28;20045;-71
2022/08/18 09:36:34;;;;;;;0.10;0.10;;;21.40;99.90;;;;;;5044649;28;20271;-71
2022/08/18 09:42:13;;;;;;;0.30;0.30;;;21.50;99.90;;;;;;5031410;28;20049;-70
2022/08/18 09:44:45;;;;;;;0.00;0.00;;;21.60;99.90;;;;;;5040897;28;20135;-71
2022/08/18 09:47:12;;;;;;;1.65;0.88;;;22.00;99.90;;;;;;5043309;28;20366;-71
2022/08/18 09:49:46;;;;;;;0.10;0.10;;;22.00;99.90;;;;;;5043660;28;20037;-71
2022/08/18 09:52:21;;;;;;;0.00;0.00;;;21.80;99.90;;;;;;5050440;28;20049;-70
2022/08/18 09:54:58;;;;;;;0.00;0.00;;;21.70;99.90;;;;;;5049690;28;20056;-74
2022/08/18 09:57:29;;;;;;;0.00;0.00;;;22.00;99.90;;;;;;5033146;28;20049;-71
2022/08/18 10:00:07;;;;;;;0.00;0.00;;;22.60;99.90;;;;;;5032164;28;20552;-71
2022/08/18 10:02:53;;;;;;;0.00;0.00;;;22.80;99.90;;;;;;5043498;28;20048;-72
2022/08/18 10:05:19;;;;;;;0.15;0.15;;;22.60;99.90;;;;;;5050551;28;20056;-70
2022/08/18 10:07:54;;;;;;;0.10;0.10;;;22.40;99.90;;;;;;5042797;28;20064;-70
2022/08/18 10:10:41;;;;;;;0.00;0.00;;;22.30;99.90;;;;;;5041443;28;20052;-70
2022/08/18 10:13:13;;;;;;;0.10;0.10;;;22.20;99.90;;;;;;5043122;28;20120;-70
2022/08/18 10:16:14;;;;;;;0.00;0.00;;;22.40;99.90;;;;;;5049383;28;20529;-70
2022/08/18 10:18:51;;;;;;;0.00;0.00;;;22.70;99.90;;;;;;5031894;28;20063;-70
2022/08/18 10:21:25;;;;;;;0.00;0.00;;;22.70;99.90;;;;;;5030347;28;20049;-70
2022/08/18 10:24:10;;;;;;;0.00;0.00;;;22.90;99.90;;;;;;5041080;28;20060;-70
2022/08/18 10:26:39;;;;;;;0.00;0.00;;;23.30;99.90;;;;;;5049391;28;20063;-70
2022/08/18 10:29:27;;;;;;;0.25;0.25;;;23.10;99.90;;;;;;5041487;28;20132;-70
2022/08/18 10:31:56;;;;;;;0.00;0.00;;;22.90;99.90;;;;;;5046694;28;20085;-69
2022/08/18 10:35:00;;;;;;;0.00;0.00;;;23.10;99.90;;;;;;5037526;28;20370;-70
2022/08/18 10:37:46;;;;;;;0.00;0.00;;;22.90;99.90;;;;;;5016894;28;20083;-70
2022/08/18 10:40:19;;;;;;;0.00;0.00;;;23.00;99.90;;;;;;5014910;28;20064;-70
2022/08/18 10:43:07;;;;;;;0.00;0.00;;;23.30;99.90;;;;;;5031808;28;20057;-70
2022/08/18 10:45:36;;;;;;;0.30;0.10;;;23.20;99.90;;;;;;5032031;28;20081;-70
2022/08/18 10:48:04;;;;;;;0.13;0.10;;;23.00;99.90;;;;;;5057015;28;20041;-70
2022/08/18 10:51:06;;;;;;;0.00;0.00;;;23.40;99.90;;;;;;5033921;28;20045;-69
2022/08/18 10:53:53;;;;;;;0.08;0.08;;;23.80;99.90;;;;;;5032980;28;20045;-70
2022/08/18 10:56:28;;;;;;;0.25;0.25;;;23.40;99.90;;;;;;5038440;28;20045;-70
2022/08/18 10:59:20;;;;;;;0.05;0.05;;;23.10;99.90;;;;;;5029723;28;20397;-70
2022/08/18 11:02:09;;;;;;;0.10;0.10;;;22.90;99.90;;;;;;5049111;28;20049;-71
2022/08/18 11:04:43;;;;;;;0.00;0.00;;;22.80;99.90;;;;;;5049504;28;20110;-70
2022/08/18 11:07:18;;;;;;;0.00;0.00;;;22.90;99.90;;;;;;5033160;28;20041;-70
2022/08/18 11:09:49;;;;;;;0.10;0.10;;;22.90;99.90;;;;;;5051936;28;20064;-70
2022/08/18 11:12:33;;;;;;;0.00;0.00;;;22.70;99.90;;;;;;5052965;28;20067;-70
2022/08/18 11:15:08;;;;;;;0.10;0.08;;;22.60;99.90;;;;;;5038400;28;20071;-70
2022/08/18 11:18:07;;;;;;;0.08;0.08;;;22.70;99.90;;;;;;5041815;28;20049;-70
2022/08/18 11:20:33;;;;;;;0.00;0.00;;;22.70;99.90;;;;;;5047373;28;20049;-70
2022/08/18 11:23:01;;;;;;;0.20;0.20;;;22.80;99.90;;;;;;5038254;28;20059;-70
2022/08/18 11:25:31;;;;;;;0.00;0.00;;;22.70;99.90;;;;;;5052337;28;20052;-70
2022/08/18 11:27:57;;;;;;;0.10;0.05;;;22.70;99.90;;;;;;5049070;28;20041;-70
2022/08/18 11:30:36;;;;;;;0.28;0.28;;;22.60;99.90;;;;;;5047052;28;20053;-70
2022/08/18 11:33:03;;;;;;;0.00;0.00;;;22.70;99.90;;;;;;5033726;28;20049;-70
2022/08/18 11:35:32;;;;;;;0.00;0.00;;;22.70;99.90;;;;;;5038995;28;20072;-70
2022/08/18 11:38:03;;;;;;;0.00;0.00;;;22.50;99.90;;;;;;5041992;28;20052;-70
2022/08/18 11:40:44;;;;;;;0.10;0.10;;;22.70;99.90;;;;;;5046654;28;20077;-70
2022/08/18 11:43:23;;;;;;;0.00;0.00;;;22.70;99.90;;;;;;5043842;28;20056;-71
2022/08/18 11:46:00;;;;;;;0.00;0.00;;;22.70;99.90;;;;;;5033326;28;20481;-71
2022/08/18 11:48:40;;;;;;;0.00;0.00;;;22.80;99.90;;;;;;5063147;28;20049;-71
2022/08/18 11:51:19;;;;;;;0.15;0.10;;;22.80;99.90;;;;;;5034249;28;20045;-71
2022/08/18 11:53:48;;;;;;;0.00;0.00;;;23.00;99.90;;;;;;5038924;28;20396;-70
2022/08/18 11:56:19;;;;;;;0.00;0.00;;;23.00;99.90;;;;;;5045264;28;20047;-70
2022/08/18 11:58:53;;;;;;;0.00;0.00;;;23.30;99.90;;;;;;5042126;28;20048;-70
2022/08/18 12:01:35;;;;;;;0.30;0.30;;;24.10;99.90;;;;;;5047218;28;20041;-71
2022/08/18 12:04:07;;;;;;;0.00;0.00;;;24.50;99.90;;;;;;5046207;28;20045;-71
2022/08/18 12:06:34;;;;;;;0.10;0.10;;;24.90;99.90;;;;;;5035432;28;20055;-70
2022/08/18 12:09:04;;;;;;;0.10;0.10;;;24.30;99.90;;;;;;5040154;28;20098;-71
2022/08/18 12:11:33;;;;;;;0.08;0.08;;;24.10;99.90;;;;;;5048504;28;20037;-70
2022/08/18 12:14:06;;;;;;;0.00;0.00;;;23.80;99.90;;;;;;5041794;28;20042;-71
2022/08/18 12:16:41;;;;;;;1.38;0.45;;;23.70;99.90;;;;;;5043077;28;20051;-70
2022/08/18 12:19:10;;;;;;;0.00;0.00;;;23.60;99.90;;;;;;5063767;28;20044;-70
2022/08/18 12:21:37;;;;;;;0.10;0.10;;;23.20;99.90;;;;;;5041169;28;20037;-70
2022/08/18 12:24:04;;;;;;;0.00;0.00;;;23.10;99.90;;;;;;5037712;28;20132;-70
2022/08/18 12:26:30;;;;;;;0.00;0.00;;;23.00;99.90;;;;;;5041168;28;20091;-70
2022/08/18 12:28:55;;;;;;;0.63;0.15;;;23.10;99.90;;;;;;5044048;28;20037;-70
2022/08/18 12:31:21;;;;;;;0.10;0.05;;;23.00;99.90;;;;;;5034865;28;20439;-70
2022/08/18 12:33:46;;;;;;;0.00;0.00;;;23.00;99.90;;;;;;5030941;28;20045;-70
2022/08/18 12:36:12;;;;;;;0.00;0.00;;;23.10;99.90;;;;;;5039431;28;20037;-70
2022/08/18 12:38:39;;;;;;;0.22;0.05;;;23.10;99.90;;;;;;5047068;28;20098;-71
2022/08/18 12:41:10;;;;;;;0.00;0.00;;;23.20;99.90;;;;;;5045172;28;20489;-70
2022/08/18 12:43:36;;;;;;;0.00;0.00;;;23.10;99.90;;;;;;5034225;28;20597;-71
2022/08/18 12:46:02;;;;;;;0.00;0.00;;;23.30;99.90;;;;;;5047227;28;20068;-71
2022/08/18 12:48:30;;;;;;;0.00;0.00;;;23.80;99.90;;;;;;5047874;28;20730;-71
2022/08/18 12:50:56;;;;;;;0.40;0.40;;;24.50;99.90;;;;;;5031072;28;20689;-72
2022/08/18 12:53:23;;;;;;;0.08;0.08;;;25.00;99.90;;;;;;5034547;28;20128;-72
2022/08/18 12:55:48;;;;;;;0.00;0.00;;;25.60;99.90;;;;;;5048136;28;20045;-71
2022/08/18 12:58:15;;;;;;;2.55;0.22;;;26.00;99.90;;;;;;5038790;28;20955;-71
2022/08/18 13:00:41;;;;;;;0.10;0.10;;;26.30;99.90;;;;;;5030516;28;20045;-71
2022/08/18 13:03:06;;;;;;;0.00;0.00;;;26.60;99.90;;;;;;5039862;28;20080;-71
2022/08/18 13:05:33;;;;;;;0.00;0.00;;;26.70;99.90;;;;;;5039524;28;20049;-71
2022/08/18 13:08:01;;;;;;;0.00;0.00;;;26.90;99.90;;;;;;5047249;28;20040;-71
2022/08/18 13:10:27;;;;;;;0.00;0.00;;;27.30;99.90;;;;;;5039341;28;20042;-70
2022/08/18 13:12:52;;;;;;;0.20;0.20;;;26.40;99.90;;;;;;5035169;28;20511;-71
2022/08/18 13:15:18;;;;;;;0.35;0.20;;;26.00;99.90;;;;;;5050400;28;20501;-71
2022/08/18 13:17:43;;;;;;;0.00;0.00;;;26.50;99.90;;;;;;5044307;28;20127;-71
2022/08/18 13:20:12;;;;;;;0.00;0.00;;;25.90;99.90;;;;;;5030719;28;20051;-71
2022/08/18 13:22:39;;;;;;;0.00;0.00;;;25.30;99.90;;;;;;5040803;28;20103;-71
2022/08/18 13:25:07;;;;;;;0.00;0.00;;;25.10;99.90;;;;;;5048090;28;20471;-71
2022/08/18 13:27:34;;;;;;;0.00;0.00;;;25.00;99.90;;;;;;5032700;28;20049;-71
2022/08/18 13:29:59;;;;;;;0.00;0.00;;;24.70;99.90;;;;;;5056440;28;20048;-71
2022/08/18 13:32:26;;;;;;;0.00;0.00;;;24.50;99.90;;;;;;5051698;28;20052;-71
2022/08/18 13:34:52;;;;;;;0.00;0.00;;;24.30;99.90;;;;;;5045983;28;20589;-71
2022/08/18 13:37:18;;;;;;;0.00;0.00;;;24.30;99.90;;;;;;5043057;28;20041;-71